sensor_id;sensor_type;location;lat;lon;timestamp;pressure;altitude;pressure_sealevel;temperature;humidity
46291;BME280;32023;44.444;26.006;2023-12-20T00:00:43;100688.75;;;3.06;91.20
46291;BME280;32023;44.444;26.006;2023-12-20T00:03:10;100685.38;;;3.04;91.66
46291;BME280;32023;44.444;26.006;2023-12-20T00:05:40;100681.63;;;3.05;91.54
46291;BME280;32023;44.444;26.006;2023-12-20T00:08:07;100673.03;;;3.01;91.12
46291;BME280;32023;44.444;26.006;2023-12-20T00:10:37;100679.25;;;2.95;91.09
46291;BME280;32023;44.444;26.006;2023-12-20T00:13:05;100667.94;;;2.91;91.60
46291;BME280;32023;44.444;26.006;2023-12-20T00:15:35;100672.75;;;2.89;91.40
46291;BME280;32023;44.444;26.006;2023-12-20T00:18:25;100665.03;;;2.86;91.63
46291;BME280;32023;44.444;26.006;2023-12-20T00:21:06;100672.53;;;2.84;91.17
46291;BME280;32023;44.444;26.006;2023-12-20T00:23:33;100666.88;;;2.79;91.00
46291;BME280;32023;44.444;26.006;2023-12-20T00:25:59;100667.66;;;2.73;90.85
46291;BME280;32023;44.444;26.006;2023-12-20T00:28:34;100661.38;;;2.73;91.46
46291;BME280;32023;44.444;26.006;2023-12-20T00:31:01;100655.50;;;2.69;91.43
46291;BME280;32023;44.444;26.006;2023-12-20T00:33:27;100659.91;;;2.70;91.63
46291;BME280;32023;44.444;26.006;2023-12-20T00:35:54;100658.22;;;2.69;91.70
46291;BME280;32023;44.444;26.006;2023-12-20T00:38:22;100655.06;;;2.66;91.55
46291;BME280;32023;44.444;26.006;2023-12-20T00:40:50;100650.44;;;2.60;91.63
46291;BME280;32023;44.444;26.006;2023-12-20T00:43:30;100640.41;;;2.60;91.71
46291;BME280;32023;44.444;26.006;2023-12-20T00:45:56;100633.28;;;2.59;91.38
46291;BME280;32023;44.444;26.006;2023-12-20T00:48:27;100628.28;;;2.56;91.37
46291;BME280;32023;44.444;26.006;2023-12-20T00:50:53;100620.72;;;2.52;91.46
46291;BME280;32023;44.444;26.006;2023-12-20T00:53:20;100617.34;;;2.50;91.67
46291;BME280;32023;44.444;26.006;2023-12-20T00:55:46;100620.28;;;2.48;92.05
46291;BME280;32023;44.444;26.006;2023-12-20T00:58:25;100619.63;;;2.46;91.54
46291;BME280;32023;44.444;26.006;2023-12-20T01:00:52;100620.47;;;2.47;91.92
46291;BME280;32023;44.444;26.006;2023-12-20T01:03:19;100620.69;;;2.45;92.18
46291;BME280;32023;44.444;26.006;2023-12-20T01:05:59;100612.72;;;2.43;92.26
46291;BME280;32023;44.444;26.006;2023-12-20T01:08:26;100614.41;;;2.45;92.88
46291;BME280;32023;44.444;26.006;2023-12-20T01:11:01;100601.84;;;2.43;92.94
46291;BME280;32023;44.444;26.006;2023-12-20T01:13:31;100603.09;;;2.41;92.83
46291;BME280;32023;44.444;26.006;2023-12-20T01:16:00;100592.00;;;2.36;93.01
46291;BME280;32023;44.444;26.006;2023-12-20T01:18:27;100591.81;;;2.44;93.25
46291;BME280;32023;44.444;26.006;2023-12-20T01:21:02;100591.22;;;2.49;93.27
46291;BME280;32023;44.444;26.006;2023-12-20T01:24:06;100592.06;;;2.49;93.01
46291;BME280;32023;44.444;26.006;2023-12-20T01:26:36;100598.13;;;2.51;92.71
46291;BME280;32023;44.444;26.006;2023-12-20T01:29:25;100600.84;;;2.51;93.00
46291;BME280;32023;44.444;26.006;2023-12-20T01:31:51;100588.94;;;2.52;92.86
46291;BME280;32023;44.444;26.006;2023-12-20T01:36:52;100590.81;;;2.52;92.77
46291;BME280;32023;44.444;26.006;2023-12-20T01:39:32;100583.50;;;2.52;92.83
46291;BME280;32023;44.444;26.006;2023-12-20T01:41:58;100575.56;;;2.57;93.02
46291;BME280;32023;44.444;26.006;2023-12-20T01:44:27;100580.41;;;2.62;93.05
46291;BME280;32023;44.444;26.006;2023-12-20T01:46:54;100570.19;;;2.64;92.78
46291;BME280;32023;44.444;26.006;2023-12-20T01:49:23;100576.84;;;2.61;92.56
46291;BME280;32023;44.444;26.006;2023-12-20T01:51:54;100569.31;;;2.57;92.50
46291;BME280;32023;44.444;26.006;2023-12-20T01:54:24;100570.53;;;2.54;92.62
46291;BME280;32023;44.444;26.006;2023-12-20T01:56:51;100578.91;;;2.53;92.59
46291;BME280;32023;44.444;26.006;2023-12-20T01:59:19;100570.09;;;2.44;92.01
46291;BME280;32023;44.444;26.006;2023-12-20T02:01:47;100563.28;;;2.27;91.54
46291;BME280;32023;44.444;26.006;2023-12-20T02:04:15;100565.13;;;2.20;91.47
46291;BME280;32023;44.444;26.006;2023-12-20T02:06:57;100558.22;;;2.11;91.56
46291;BME280;32023;44.444;26.006;2023-12-20T02:09:28;100547.25;;;1.98;91.68
46291;BME280;32023;44.444;26.006;2023-12-20T02:11:58;100560.63;;;1.92;91.54
46291;BME280;32023;44.444;26.006;2023-12-20T02:14:25;100546.53;;;1.82;91.90
46291;BME280;32023;44.444;26.006;2023-12-20T02:16:57;100553.00;;;1.81;91.92
46291;BME280;32023;44.444;26.006;2023-12-20T02:19:24;100545.50;;;1.83;92.36
46291;BME280;32023;44.444;26.006;2023-12-20T02:21:51;100545.94;;;1.87;92.21
46291;BME280;32023;44.444;26.006;2023-12-20T02:24:33;100528.63;;;1.88;92.16
46291;BME280;32023;44.444;26.006;2023-12-20T02:27:02;100532.81;;;1.90;91.86
46291;BME280;32023;44.444;26.006;2023-12-20T02:29:29;100525.50;;;1.91;91.89
46291;BME280;32023;44.444;26.006;2023-12-20T02:32:01;100522.59;;;1.92;91.49
46291;BME280;32023;44.444;26.006;2023-12-20T02:34:40;100504.81;;;1.90;90.93
46291;BME280;32023;44.444;26.006;2023-12-20T02:37:07;100508.78;;;1.87;90.93
46291;BME280;32023;44.444;26.006;2023-12-20T02:39:33;100498.66;;;1.75;90.34
46291;BME280;32023;44.444;26.006;2023-12-20T02:42:05;100496.94;;;1.67;90.83
46291;BME280;32023;44.444;26.006;2023-12-20T02:44:34;100498.53;;;1.55;90.64
46291;BME280;32023;44.444;26.006;2023-12-20T02:47:06;100492.44;;;1.47;90.59
46291;BME280;32023;44.444;26.006;2023-12-20T02:49:34;100489.22;;;1.36;90.98
46291;BME280;32023;44.444;26.006;2023-12-20T02:52:10;100487.19;;;1.45;91.12
46291;BME280;32023;44.444;26.006;2023-12-20T02:54:40;100482.63;;;1.45;91.27
46291;BME280;32023;44.444;26.006;2023-12-20T02:57:06;100482.16;;;1.42;91.00
46291;BME280;32023;44.444;26.006;2023-12-20T02:59:33;100483.00;;;1.42;90.91
46291;BME280;32023;44.444;26.006;2023-12-20T03:02:03;100476.34;;;1.45;91.01
46291;BME280;32023;44.444;26.006;2023-12-20T03:04:29;100476.34;;;1.45;91.26
46291;BME280;32023;44.444;26.006;2023-12-20T03:07:14;100473.38;;;1.40;91.24
46291;BME280;32023;44.444;26.006;2023-12-20T03:09:41;100459.00;;;1.39;91.54
46291;BME280;32023;44.444;26.006;2023-12-20T03:12:20;100453.56;;;1.39;91.75
46291;BME280;32023;44.444;26.006;2023-12-20T03:14:55;100457.50;;;1.37;91.82
46291;BME280;32023;44.444;26.006;2023-12-20T03:17:24;100444.59;;;1.39;91.76
46291;BME280;32023;44.444;26.006;2023-12-20T03:19:52;100449.63;;;1.42;91.94
46291;BME280;32023;44.444;26.006;2023-12-20T03:22:19;100448.38;;;1.44;92.11
46291;BME280;32023;44.444;26.006;2023-12-20T03:24:45;100440.47;;;1.50;92.33
46291;BME280;32023;44.444;26.006;2023-12-20T03:27:18;100444.66;;;1.52;92.50
46291;BME280;32023;44.444;26.006;2023-12-20T03:29:44;100442.97;;;1.51;92.18
46291;BME280;32023;44.444;26.006;2023-12-20T03:32:10;100439.00;;;1.47;92.34
46291;BME280;32023;44.444;26.006;2023-12-20T03:34:40;100435.91;;;1.50;92.27
46291;BME280;32023;44.444;26.006;2023-12-20T03:37:15;100433.19;;;1.50;92.33
46291;BME280;32023;44.444;26.006;2023-12-20T03:39:42;100434.63;;;1.46;92.17
46291;BME280;32023;44.444;26.006;2023-12-20T03:42:09;100429.19;;;1.46;92.49
46291;BME280;32023;44.444;26.006;2023-12-20T03:44:41;100432.75;;;1.47;92.28
46291;BME280;32023;44.444;26.006;2023-12-20T03:47:08;100419.19;;;1.47;92.29
46291;BME280;32023;44.444;26.006;2023-12-20T03:49:34;100416.25;;;1.48;92.13
46291;BME280;32023;44.444;26.006;2023-12-20T03:52:06;100409.59;;;1.51;92.08
46291;BME280;32023;44.444;26.006;2023-12-20T03:54:34;100412.09;;;1.52;91.98
46291;BME280;32023;44.444;26.006;2023-12-20T03:57:01;100410.41;;;1.51;91.97
46291;BME280;32023;44.444;26.006;2023-12-20T03:59:27;100406.47;;;1.47;91.73
46291;BME280;32023;44.444;26.006;2023-12-20T04:01:55;100408.31;;;1.47;91.55
46291;BME280;32023;44.444;26.006;2023-12-20T04:04:23;100410.88;;;1.55;91.81
46291;BME280;32023;44.444;26.006;2023-12-20T04:06:54;100421.94;;;1.60;91.92
46291;BME280;32023;44.444;26.006;2023-12-20T04:09:25;100423.78;;;1.53;90.96
46291;BME280;32023;44.444;26.006;2023-12-20T04:11:55;100412.91;;;1.46;90.71
46291;BME280;32023;44.444;26.006;2023-12-20T04:14:22;100409.97;;;1.48;91.17
46291;BME280;32023;44.444;26.006;2023-12-20T04:16:48;100414.81;;;1.52;90.92
46291;BME280;32023;44.444;26.006;2023-12-20T04:19:22;100412.50;;;1.49;90.53
46291;BME280;32023;44.444;26.006;2023-12-20T04:21:51;100410.19;;;1.46;90.37
46291;BME280;32023;44.444;26.006;2023-12-20T04:24:21;100405.81;;;1.45;90.44
46291;BME280;32023;44.444;26.006;2023-12-20T04:26:48;100398.69;;;1.44;90.56
46291;BME280;32023;44.444;26.006;2023-12-20T04:29:16;100408.75;;;1.50;90.55
46291;BME280;32023;44.444;26.006;2023-12-20T04:31:45;100399.97;;;1.48;90.08
46291;BME280;32023;44.444;26.006;2023-12-20T04:34:14;100398.69;;;1.44;90.23
46291;BME280;32023;44.444;26.006;2023-12-20T04:36:40;100403.34;;;1.50;89.88
46291;BME280;32023;44.444;26.006;2023-12-20T04:39:13;100408.75;;;1.50;89.57
46291;BME280;32023;44.444;26.006;2023-12-20T04:42:10;100409.53;;;1.44;89.79
46291;BME280;32023;44.444;26.006;2023-12-20T04:44:43;100405.00;;;1.51;89.97
46291;BME280;32023;44.444;26.006;2023-12-20T04:47:18;100404.63;;;1.54;89.60
46291;BME280;32023;44.444;26.006;2023-12-20T04:50:07;100415.69;;;1.59;89.51
46291;BME280;32023;44.444;26.006;2023-12-20T04:52:38;100420.31;;;1.65;89.38
46291;BME280;32023;44.444;26.006;2023-12-20T04:55:18;100405.31;;;1.69;89.06
46291;BME280;32023;44.444;26.006;2023-12-20T04:58:04;100398.66;;;1.72;88.93
46291;BME280;32023;44.444;26.006;2023-12-20T05:00:33;100390.94;;;1.75;88.97
46291;BME280;32023;44.444;26.006;2023-12-20T05:03:15;100390.94;;;1.75;88.71
46291;BME280;32023;44.444;26.006;2023-12-20T05:05:42;100384.06;;;1.79;88.40
46291;BME280;32023;44.444;26.006;2023-12-20T05:08:08;100379.25;;;1.81;88.23
46291;BME280;32023;44.444;26.006;2023-12-20T05:10:38;100379.25;;;1.81;88.23
46291;BME280;32023;44.444;26.006;2023-12-20T05:16:27;100380.13;;;1.88;87.75
46291;BME280;32023;44.444;26.006;2023-12-20T05:18:54;100379.06;;;1.89;87.96
46291;BME280;32023;44.444;26.006;2023-12-20T05:21:24;100367.84;;;1.92;87.72
46291;BME280;32023;44.444;26.006;2023-12-20T05:23:59;100372.84;;;1.96;87.36
46291;BME280;32023;44.444;26.006;2023-12-20T05:26:30;100370.75;;;1.98;87.14
46291;BME280;32023;44.444;26.006;2023-12-20T05:29:09;100372.19;;;1.93;86.91
46291;BME280;32023;44.444;26.006;2023-12-20T05:31:45;100369.72;;;1.92;86.43
46291;BME280;32023;44.444;26.006;2023-12-20T05:34:14;100372.44;;;1.92;86.09
46291;BME280;32023;44.444;26.006;2023-12-20T05:36:40;100364.66;;;1.89;85.30
46291;BME280;32023;44.444;26.006;2023-12-20T05:39:07;100372.00;;;1.88;84.96
46291;BME280;32023;44.444;26.006;2023-12-20T05:41:38;100373.03;;;1.87;84.15
46291;BME280;32023;44.444;26.006;2023-12-20T05:44:05;100372.44;;;1.92;84.25
46291;BME280;32023;44.444;26.006;2023-12-20T05:46:31;100373.47;;;1.98;84.26
46291;BME280;32023;44.444;26.006;2023-12-20T05:48:58;100368.47;;;2.01;84.19
46291;BME280;32023;44.444;26.006;2023-12-20T05:51:24;100321.63;;;1.73;84.31
46291;BME280;32023;44.444;26.006;2023-12-20T05:53:53;100368.91;;;2.05;83.99
46291;BME280;32023;44.444;26.006;2023-12-20T05:56:19;100375.59;;;2.09;83.67
46291;BME280;32023;44.444;26.006;2023-12-20T05:58:58;100377.88;;;2.12;83.54
46291;BME280;32023;44.444;26.006;2023-12-20T06:01:35;100379.81;;;2.18;83.40
46291;BME280;32023;44.444;26.006;2023-12-20T06:04:04;100389.44;;;2.27;83.48
46291;BME280;32023;44.444;26.006;2023-12-20T06:06:33;100375.88;;;2.40;82.77
46291;BME280;32023;44.444;26.006;2023-12-20T06:08:59;100378.59;;;2.53;82.14
46291;BME280;32023;44.444;26.006;2023-12-20T06:11:35;100380.72;;;2.71;81.76
46291;BME280;32023;44.444;26.006;2023-12-20T06:14:10;100370.25;;;2.87;80.14
46291;BME280;32023;44.444;26.006;2023-12-20T06:16:37;100365.22;;;3.11;79.97
46291;BME280;32023;44.444;26.006;2023-12-20T06:19:06;100362.03;;;3.33;79.65
46291;BME280;32023;44.444;26.006;2023-12-20T06:21:37;100360.53;;;3.44;79.08
46291;BME280;32023;44.444;26.006;2023-12-20T06:24:06;100313.38;;;2.92;73.70
46291;BME280;32023;44.444;26.006;2023-12-20T06:30:07;100366.50;;;2.82;74.02
46291;BME280;32023;44.444;26.006;2023-12-20T06:32:38;100351.66;;;2.78;74.24
46291;BME280;32023;44.444;26.006;2023-12-20T06:35:17;100354.38;;;2.84;74.80
46291;BME280;32023;44.444;26.006;2023-12-20T06:38:18;100342.44;;;2.85;74.16
46291;BME280;32023;44.444;26.006;2023-12-20T06:41:25;100341.41;;;2.86;73.86
46291;BME280;32023;44.444;26.006;2023-12-20T06:44:09;100343.50;;;2.84;73.54
46291;BME280;32023;44.444;26.006;2023-12-20T06:46:58;100341.63;;;2.78;73.35
46291;BME280;32023;44.444;26.006;2023-12-20T06:49:31;100341.41;;;2.86;74.06
46291;BME280;32023;44.444;26.006;2023-12-20T06:52:16;100333.66;;;2.90;73.88
46291;BME280;32023;44.444;26.006;2023-12-20T06:54:56;100328.81;;;2.99;73.53
46291;BME280;32023;44.444;26.006;2023-12-20T06:57:25;100326.72;;;3.07;73.90
46291;BME280;32023;44.444;26.006;2023-12-20T07:03:19;100316.66;;;3.21;73.18
46291;BME280;32023;44.444;26.006;2023-12-20T07:05:50;100317.88;;;3.31;73.07
46291;BME280;32023;44.444;26.006;2023-12-20T07:08:21;100316.59;;;3.40;73.58
46291;BME280;32023;44.444;26.006;2023-12-20T07:10:53;100310.78;;;3.24;71.52
46291;BME280;32023;44.444;26.006;2023-12-20T07:13:20;100314.81;;;3.08;71.77
46291;BME280;32023;44.444;26.006;2023-12-20T07:16:02;100304.56;;;3.04;71.64
46291;BME280;32023;44.444;26.006;2023-12-20T07:18:36;100301.63;;;2.99;72.26
46291;BME280;32023;44.444;26.006;2023-12-20T07:21:03;100297.03;;;2.99;71.67
46291;BME280;32023;44.444;26.006;2023-12-20T07:23:32;100294.91;;;3.08;72.02
46291;BME280;32023;44.444;26.006;2023-12-20T07:26:13;100294.06;;;3.20;71.99
46291;BME280;32023;44.444;26.006;2023-12-20T07:29:29;100294.41;;;3.37;71.35
46291;BME280;32023;44.444;26.006;2023-12-20T07:31:58;100289.28;;;3.60;71.82
46291;BME280;32023;44.444;26.006;2023-12-20T07:38:01;100280.38;;;3.84;69.73
46291;BME280;32023;44.444;26.006;2023-12-20T07:40:28;100275.69;;;3.98;69.02
46291;BME280;32023;44.444;26.006;2023-12-20T07:43:06;100214.75;;;3.93;69.02
46291;BME280;32023;44.444;26.006;2023-12-20T07:45:46;100258.94;;;4.51;67.63
46291;BME280;32023;44.444;26.006;2023-12-20T07:48:19;100257.81;;;4.83;67.25
46291;BME280;32023;44.444;26.006;2023-12-20T07:50:49;100254.19;;;5.44;67.63
46291;BME280;32023;44.444;26.006;2023-12-20T07:53:19;100246.81;;;6.22;66.21
46291;BME280;32023;44.444;26.006;2023-12-20T07:55:52;100240.31;;;7.04;63.94
46291;BME280;32023;44.444;26.006;2023-12-20T07:58:24;100235.56;;;7.80;61.18
46291;BME280;32023;44.444;26.006;2023-12-20T08:00:51;100230.16;;;8.41;58.73
46291;BME280;32023;44.444;26.006;2023-12-20T08:03:17;100236.44;;;8.92;55.61
46291;BME280;32023;44.444;26.006;2023-12-20T08:05:46;100235.16;;;9.38;54.57
46291;BME280;32023;44.444;26.006;2023-12-20T08:08:18;100242.59;;;9.86;53.33
46291;BME280;32023;44.444;26.006;2023-12-20T08:10:47;100237.25;;;10.23;50.25
46291;BME280;32023;44.444;26.006;2023-12-20T08:13:13;100232.78;;;10.80;49.22
46291;BME280;32023;44.444;26.006;2023-12-20T08:15:53;100227.28;;;11.27;46.69
46291;BME280;32023;44.444;26.006;2023-12-20T08:18:25;100236.06;;;11.19;43.88
46291;BME280;32023;44.444;26.006;2023-12-20T08:20:54;100239.94;;;10.44;45.15
46291;BME280;32023;44.444;26.006;2023-12-20T08:23:23;100233.69;;;10.00;46.61
46291;BME280;32023;44.444;26.006;2023-12-20T08:25:50;100237.09;;;9.86;47.85
46291;BME280;32023;44.444;26.006;2023-12-20T08:28:24;100232.91;;;10.05;47.47
46291;BME280;32023;44.444;26.006;2023-12-20T08:31:00;100236.84;;;9.87;47.20
46291;BME280;32023;44.444;26.006;2023-12-20T08:33:50;100235.28;;;9.70;49.43
46291;BME280;32023;44.444;26.006;2023-12-20T08:36:29;100218.41;;;9.61;49.74
46291;BME280;32023;44.444;26.006;2023-12-20T08:38:55;100215.31;;;9.79;51.08
46291;BME280;32023;44.444;26.006;2023-12-20T08:41:33;100205.88;;;9.97;50.85
46291;BME280;32023;44.444;26.006;2023-12-20T08:44:09;100204.84;;;10.03;50.68
46291;BME280;32023;44.444;26.006;2023-12-20T08:46:37;100201.31;;;10.07;50.54
46291;BME280;32023;44.444;26.006;2023-12-20T08:49:09;100192.44;;;9.74;50.33
46291;BME280;32023;44.444;26.006;2023-12-20T08:51:45;100194.66;;;9.77;51.54
46291;BME280;32023;44.444;26.006;2023-12-20T08:54:11;100191.47;;;9.63;50.55
46291;BME280;32023;44.444;26.006;2023-12-20T08:56:39;100186.31;;;9.45;49.79
46291;BME280;32023;44.444;26.006;2023-12-20T08:59:08;100180.28;;;9.21;50.42
46291;BME280;32023;44.444;26.006;2023-12-20T09:01:48;100166.91;;;9.08;50.11
46291;BME280;32023;44.444;26.006;2023-12-20T09:04:47;100180.56;;;9.03;50.80
46291;BME280;32023;44.444;26.006;2023-12-20T09:07:28;100170.34;;;9.20;51.26
46291;BME280;32023;44.444;26.006;2023-12-20T09:10:22;100154.31;;;9.34;50.86
46291;BME280;32023;44.444;26.006;2023-12-20T09:17:56;100127.03;;;10.39;50.33
46291;BME280;32023;44.444;26.006;2023-12-20T09:20:24;100120.16;;;10.84;48.93
46291;BME280;32023;44.444;26.006;2023-12-20T09:22:53;100129.47;;;10.78;48.46
46291;BME280;32023;44.444;26.006;2023-12-20T09:25:42;100116.56;;;10.83;47.65
46291;BME280;32023;44.444;26.006;2023-12-20T09:28:09;100102.59;;;10.48;48.44
46291;BME280;32023;44.444;26.006;2023-12-20T09:30:38;100101.22;;;10.50;48.59
46291;BME280;32023;44.444;26.006;2023-12-20T09:33:06;100095.16;;;10.48;49.79
46291;BME280;32023;44.444;26.006;2023-12-20T09:35:47;100095.91;;;10.34;49.55
46291;BME280;32023;44.444;26.006;2023-12-20T09:38:15;100089.06;;;10.09;49.50
46291;BME280;32023;44.444;26.006;2023-12-20T09:41:15;100086.72;;;9.91;50.75
46291;BME280;32023;44.444;26.006;2023-12-20T09:43:51;100087.47;;;9.82;51.17
46291;BME280;32023;44.444;26.006;2023-12-20T09:46:44;100077.69;;;9.96;51.36
46291;BME280;32023;44.444;26.006;2023-12-20T09:49:46;100066.59;;;9.86;50.61
46291;BME280;32023;44.444;26.006;2023-12-20T09:52:53;100057.78;;;9.84;50.75
46291;BME280;32023;44.444;26.006;2023-12-20T09:55:31;100060.00;;;9.87;49.86
46291;BME280;32023;44.444;26.006;2023-12-20T09:58:00;100063.72;;;9.71;50.06
46291;BME280;32023;44.444;26.006;2023-12-20T10:00:34;100046.66;;;9.68;50.43
46291;BME280;32023;44.444;26.006;2023-12-20T11:41:28;99890.63;;;14.89;41.69
46291;BME280;32023;44.444;26.006;2023-12-20T11:50:29;99878.31;;;12.95;47.57
46291;BME280;32023;44.444;26.006;2023-12-20T11:53:08;99875.09;;;12.78;48.42
46291;BME280;32023;44.444;26.006;2023-12-20T11:55:57;99862.34;;;12.38;49.30
46291;BME280;32023;44.444;26.006;2023-12-20T12:02:01;99863.38;;;11.68;51.89
46291;BME280;32023;44.444;26.006;2023-12-20T12:04:30;99861.19;;;11.59;52.57
46291;BME280;32023;44.444;26.006;2023-12-20T12:06:59;99860.44;;;11.29;53.46
46291;BME280;32023;44.444;26.006;2023-12-20T12:09:42;99857.38;;;11.00;54.42
46291;BME280;32023;44.444;26.006;2023-12-20T12:12:20;99857.06;;;10.66;55.60
46291;BME280;32023;44.444;26.006;2023-12-20T12:14:58;99852.31;;;10.36;56.92
46291;BME280;32023;44.444;26.006;2023-12-20T12:17:25;99844.56;;;10.18;57.52
46291;BME280;32023;44.444;26.006;2023-12-20T12:20:01;99855.44;;;9.98;58.14
46291;BME280;32023;44.444;26.006;2023-12-20T12:22:31;99855.94;;;9.85;58.24
46291;BME280;32023;44.444;26.006;2023-12-20T12:25:13;99858.00;;;9.57;59.67
46291;BME280;32023;44.444;26.006;2023-12-20T12:27:41;99847.19;;;9.46;60.48
46291;BME280;32023;44.444;26.006;2023-12-20T12:30:09;99845.72;;;9.28;60.94
46291;BME280;32023;44.444;26.006;2023-12-20T12:32:43;99839.63;;;9.21;61.48
46291;BME280;32023;44.444;26.006;2023-12-20T12:35:16;99828.59;;;9.16;62.05
46291;BME280;32023;44.444;26.006;2023-12-20T12:37:43;99823.16;;;9.26;61.84
46291;BME280;32023;44.444;26.006;2023-12-20T12:40:14;99834.50;;;9.35;62.34
46291;BME280;32023;44.444;26.006;2023-12-20T12:42:42;99832.56;;;9.35;62.06
46291;BME280;32023;44.444;26.006;2023-12-20T12:45:09;99827.06;;;9.35;62.19
46291;BME280;32023;44.444;26.006;2023-12-20T12:47:37;99817.53;;;9.48;62.29
46291;BME280;32023;44.444;26.006;2023-12-20T12:50:04;99809.59;;;9.51;62.11
46291;BME280;32023;44.444;26.006;2023-12-20T12:52:32;99794.78;;;9.57;62.53
46291;BME280;32023;44.444;26.006;2023-12-20T12:55:00;99804.34;;;9.50;62.72
46291;BME280;32023;44.444;26.006;2023-12-20T12:57:44;99811.50;;;9.51;63.07
46291;BME280;32023;44.444;26.006;2023-12-20T13:09:59;99788.66;;;9.45;64.65
46291;BME280;32023;44.444;26.006;2023-12-20T13:12:26;99803.47;;;9.44;64.70
46291;BME280;32023;44.444;26.006;2023-12-20T13:14:52;99792.44;;;9.34;64.98
46291;BME280;32023;44.444;26.006;2023-12-20T13:17:20;99786.91;;;9.29;64.96
46291;BME280;32023;44.444;26.006;2023-12-20T13:19:47;99801.66;;;9.18;65.85
46291;BME280;32023;44.444;26.006;2023-12-20T13:26:09;99791.19;;;9.10;66.50
46291;BME280;32023;44.444;26.006;2023-12-20T13:32:32;99779.63;;;9.08;67.11
46291;BME280;32023;44.444;26.006;2023-12-20T13:38:05;99785.97;;;9.08;67.62
46291;BME280;32023;44.444;26.006;2023-12-20T13:43:38;99779.88;;;9.01;67.98
46291;BME280;32023;44.444;26.006;2023-12-20T13:46:40;99781.13;;;8.89;68.96
46291;BME280;32023;44.444;26.006;2023-12-20T13:50:03;99778.25;;;8.68;70.49
46291;BME280;32023;44.444;26.006;2023-12-20T13:52:35;99777.75;;;8.77;70.38
46291;BME280;32023;44.444;26.006;2023-12-20T13:55:03;99779.41;;;8.78;70.17
46291;BME280;32023;44.444;26.006;2023-12-20T13:57:36;99782.69;;;8.75;70.39
46291;BME280;32023;44.444;26.006;2023-12-20T14:00:11;99777.16;;;8.69;70.83
46291;BME280;32023;44.444;26.006;2023-12-20T14:02:48;99769.38;;;8.61;71.63
46291;BME280;32023;44.444;26.006;2023-12-20T14:05:19;99771.56;;;8.59;71.72
46291;BME280;32023;44.444;26.006;2023-12-20T14:07:48;99766.63;;;8.56;71.95
46291;BME280;32023;44.444;26.006;2023-12-20T14:10:17;99768.78;;;8.54;72.48
46291;BME280;32023;44.444;26.006;2023-12-20T14:12:43;99767.03;;;8.43;73.18
46291;BME280;32023;44.444;26.006;2023-12-20T14:15:10;99764.25;;;8.38;73.20
46291;BME280;32023;44.444;26.006;2023-12-20T14:17:40;99767.47;;;8.30;73.83
46291;BME280;32023;44.444;26.006;2023-12-20T14:20:26;99755.84;;;8.23;74.35
46291;BME280;32023;44.444;26.006;2023-12-20T14:22:53;99747.03;;;8.21;74.64
46291;BME280;32023;44.444;26.006;2023-12-20T14:25:19;99749.16;;;8.14;75.18
46291;BME280;32023;44.444;26.006;2023-12-20T14:27:46;99744.16;;;8.06;75.27
46291;BME280;32023;44.444;26.006;2023-12-20T14:30:14;99740.22;;;7.97;75.39
46291;BME280;32023;44.444;26.006;2023-12-20T14:32:48;99754.00;;;7.80;76.39
46291;BME280;32023;44.444;26.006;2023-12-20T14:35:23;99736.97;;;7.78;76.48
46291;BME280;32023;44.444;26.006;2023-12-20T14:37:49;99741.34;;;7.74;76.56
46291;BME280;32023;44.444;26.006;2023-12-20T14:40:19;99731.72;;;7.71;76.84
46291;BME280;32023;44.444;26.006;2023-12-20T14:42:58;99728.41;;;7.69;76.75
46291;BME280;32023;44.444;26.006;2023-12-20T14:45:30;99548.34;;;6.46;77.61
46291;BME280;32023;44.444;26.006;2023-12-20T14:47:56;99711.19;;;7.52;77.79
46291;BME280;32023;44.444;26.006;2023-12-20T14:50:25;99717.19;;;7.49;78.08
46291;BME280;32023;44.444;26.006;2023-12-20T14:52:58;99714.66;;;7.43;78.49
46291;BME280;32023;44.444;26.006;2023-12-20T14:55:26;99718.66;;;7.35;78.95
46291;BME280;32023;44.444;26.006;2023-12-20T14:57:54;99714.72;;;7.26;79.67
46291;BME280;32023;44.444;26.006;2023-12-20T15:00:28;99719.53;;;7.19;80.72
46291;BME280;32023;44.444;26.006;2023-12-20T15:03:09;99711.72;;;7.06;82.29
46291;BME280;32023;44.444;26.006;2023-12-20T15:05:38;99714.13;;;7.02;82.78
46291;BME280;32023;44.444;26.006;2023-12-20T15:08:08;99713.47;;;6.95;83.75
46291;BME280;32023;44.444;26.006;2023-12-20T15:10:36;99714.72;;;6.88;84.90
46291;BME280;32023;44.444;26.006;2023-12-20T15:13:14;99706.13;;;6.79;85.92
46291;BME280;32023;44.444;26.006;2023-12-20T15:15:41;99705.81;;;6.75;86.34
46291;BME280;32023;44.444;26.006;2023-12-20T15:18:19;99715.59;;;6.71;86.96
46291;BME280;32023;44.444;26.006;2023-12-20T15:21:10;99705.47;;;6.72;86.73
46291;BME280;32023;44.444;26.006;2023-12-20T15:23:42;99701.97;;;6.76;86.62
46291;BME280;32023;44.444;26.006;2023-12-20T15:26:34;99701.97;;;6.76;86.37
46291;BME280;32023;44.444;26.006;2023-12-20T15:32:38;99690.97;;;6.71;86.68
46291;BME280;32023;44.444;26.006;2023-12-20T15:36:03;99695.34;;;6.72;86.43
46291;BME280;32023;44.444;26.006;2023-12-20T15:39:01;99698.06;;;6.72;86.28
46291;BME280;32023;44.444;26.006;2023-12-20T15:41:33;99693.72;;;6.71;86.33
46291;BME280;32023;44.444;26.006;2023-12-20T15:44:18;99697.19;;;6.67;86.25
46291;BME280;32023;44.444;26.006;2023-12-20T15:46:51;99695.53;;;6.66;86.09
46291;BME280;32023;44.444;26.006;2023-12-20T15:49:20;99697.84;;;6.57;86.98
46291;BME280;32023;44.444;26.006;2023-12-20T15:51:47;99694.47;;;6.50;87.51
46291;BME280;32023;44.444;26.006;2023-12-20T15:54:24;99693.88;;;6.48;88.01
46291;BME280;32023;44.444;26.006;2023-12-20T15:56:51;99690.31;;;6.48;88.09
46291;BME280;32023;44.444;26.006;2023-12-20T15:59:18;99679.06;;;6.44;88.40